sensor_id;sensor_type;location;lat;lon;timestamp;pressure;altitude;pressure_sealevel;temperature;humidity
63347;BME280;49472;49.880;8.650;2023-03-16T00:01:15;100603.72;;;5.75;nan
63347;BME280;49472;49.880;8.650;2023-03-16T00:03:41;100608.25;;;5.87;nan
63347;BME280;49472;49.880;8.650;2023-03-16T00:06:06;100613.06;;;6.14;nan
63347;BME280;49472;49.880;8.650;2023-03-16T00:08:31;100611.44;;;6.30;nan
63347;BME280;49472;49.880;8.650;2023-03-16T00:10:57;100616.19;;;6.38;nan
63347;BME280;49472;49.880;8.650;2023-03-16T00:13:23;100614.78;;;5.74;nan
63347;BME280;49472;49.880;8.650;2023-03-16T00:15:53;100614.09;;;6.46;nan
63347;BME280;49472;49.880;8.650;2023-03-16T00:18:19;100602.31;;;6.45;nan
63347;BME280;49472;49.880;8.650;2023-03-16T00:20:52;100597.25;;;6.26;nan
63347;BME280;49472;49.880;8.650;2023-03-16T00:23:19;100607.19;;;6.30;nan
63347;BME280;49472;49.880;8.650;2023-03-16T00:25:51;100604.38;;;6.37;nan
63347;BME280;49472;49.880;8.650;2023-03-16T00:28:17;100594.75;;;6.43;nan
63347;BME280;49472;49.880;8.650;2023-03-16T00:30:43;100596.78;;;6.18;nan
63347;BME280;49472;49.880;8.650;2023-03-16T00:33:11;100592.78;;;6.31;nan
63347;BME280;49472;49.880;8.650;2023-03-16T00:35:36;100589.84;;;6.21;nan
63347;BME280;49472;49.880;8.650;2023-03-16T00:38:02;100596.19;;;5.92;nan
63347;BME280;49472;49.880;8.650;2023-03-16T00:40:28;100591.34;;;5.48;nan
63347;BME280;49472;49.880;8.650;2023-03-16T00:42:55;100589.28;;;6.15;nan
63347;BME280;49472;49.880;8.650;2023-03-16T00:45:20;100583.03;;;5.84;nan
63347;BME280;49472;49.880;8.650;2023-03-16T00:47:48;100577.66;;;5.90;nan
63347;BME280;49472;49.880;8.650;2023-03-16T00:50:14;100580.56;;;5.63;nan
63347;BME280;49472;49.880;8.650;2023-03-16T00:52:40;100582.75;;;5.90;nan
63347;BME280;49472;49.880;8.650;2023-03-16T00:55:06;100577.69;;;6.28;nan
63347;BME280;49472;49.880;8.650;2023-03-16T00:57:33;100575.22;;;6.07;nan
63347;BME280;49472;49.880;8.650;2023-03-16T00:59:58;100575.22;;;6.07;nan
63347;BME280;49472;49.880;8.650;2023-03-16T01:02:23;100574.00;;;5.97;nan
63347;BME280;49472;49.880;8.650;2023-03-16T01:04:50;100569.28;;;6.08;nan
63347;BME280;49472;49.880;8.650;2023-03-16T01:07:16;100575.53;;;6.38;nan
63347;BME280;49472;49.880;8.650;2023-03-16T01:09:41;100572.78;;;6.42;nan
63347;BME280;49472;49.880;8.650;2023-03-16T01:12:10;100574.38;;;5.69;nan
63347;BME280;49472;49.880;8.650;2023-03-16T01:14:37;100576.41;;;5.21;nan
63347;BME280;49472;49.880;8.650;2023-03-16T01:17:04;100575.81;;;5.75;nan
63347;BME280;49472;49.880;8.650;2023-03-16T01:19:32;100569.53;;;6.21;nan
63347;BME280;49472;49.880;8.650;2023-03-16T01:21:58;100574.09;;;5.96;nan
63347;BME280;49472;49.880;8.650;2023-03-16T01:24:23;100575.06;;;5.54;nan
63347;BME280;49472;49.880;8.650;2023-03-16T01:26:48;100568.00;;;5.21;nan
63347;BME280;49472;49.880;8.650;2023-03-16T01:29:14;100572.16;;;5.42;nan
63347;BME280;49472;49.880;8.650;2023-03-16T01:31:39;100571.50;;;5.77;nan
63347;BME280;49472;49.880;8.650;2023-03-16T01:34:04;100573.06;;;5.21;nan
63347;BME280;49472;49.880;8.650;2023-03-16T01:36:30;100570.28;;;4.86;nan
63347;BME280;49472;49.880;8.650;2023-03-16T01:38:58;100564.50;;;5.23;nan
63347;BME280;49472;49.880;8.650;2023-03-16T01:41:24;100557.81;;;5.81;nan
63347;BME280;49472;49.880;8.650;2023-03-16T01:43:51;100559.09;;;5.71;nan
63347;BME280;49472;49.880;8.650;2023-03-16T01:46:21;100553.66;;;5.40;nan
63347;BME280;49472;49.880;8.650;2023-03-16T01:48:52;100539.28;;;5.98;nan
63347;BME280;49472;49.880;8.650;2023-03-16T01:53:54;100547.00;;;4.56;nan
63347;BME280;49472;49.880;8.650;2023-03-16T01:56:30;100532.28;;;4.66;nan
63347;BME280;49472;49.880;8.650;2023-03-16T01:59:01;100536.13;;;4.54;nan
63347;BME280;49472;49.880;8.650;2023-03-16T02:01:30;100536.91;;;4.97;nan
63347;BME280;49472;49.880;8.650;2023-03-16T02:04:01;100546.38;;;5.52;nan
63347;BME280;49472;49.880;8.650;2023-03-16T02:06:29;100546.94;;;5.39;nan
63347;BME280;49472;49.880;8.650;2023-03-16T02:08:56;100538.31;;;5.43;nan
63347;BME280;49472;49.880;8.650;2023-03-16T02:11:23;100540.25;;;5.57;nan
63347;BME280;49472;49.880;8.650;2023-03-16T02:13:49;100527.38;;;5.22;nan
63347;BME280;49472;49.880;8.650;2023-03-16T02:16:16;100526.59;;;5.02;nan
63347;BME280;49472;49.880;8.650;2023-03-16T02:18:45;100525.94;;;4.96;nan
63347;BME280;49472;49.880;8.650;2023-03-16T02:21:24;100530.44;;;5.69;nan
63347;BME280;49472;49.880;8.650;2023-03-16T02:23:52;100529.19;;;5.58;nan
63347;BME280;49472;49.880;8.650;2023-03-16T02:26:28;100528.53;;;5.55;nan
63347;BME280;49472;49.880;8.650;2023-03-16T02:29:22;100529.34;;;5.55;nan
63347;BME280;49472;49.880;8.650;2023-03-16T02:31:53;100533.59;;;5.55;nan
63347;BME280;49472;49.880;8.650;2023-03-16T02:34:19;100522.16;;;4.86;nan
63347;BME280;49472;49.880;8.650;2023-03-16T02:36:45;100519.84;;;4.80;nan
63347;BME280;49472;49.880;8.650;2023-03-16T02:39:12;100519.97;;;4.56;nan
63347;BME280;49472;49.880;8.650;2023-03-16T02:41:38;100514.78;;;4.80;nan
63347;BME280;49472;49.880;8.650;2023-03-16T02:44:10;100513.19;;;5.18;nan
63347;BME280;49472;49.880;8.650;2023-03-16T02:46:39;100505.38;;;5.23;nan
63347;BME280;49472;49.880;8.650;2023-03-16T02:51:44;100500.31;;;5.80;nan
63347;BME280;49472;49.880;8.650;2023-03-16T02:54:10;100493.03;;;5.15;nan
63347;BME280;49472;49.880;8.650;2023-03-16T02:56:35;100492.22;;;5.34;nan
63347;BME280;49472;49.880;8.650;2023-03-16T02:59:00;100489.69;;;5.15;nan
63347;BME280;49472;49.880;8.650;2023-03-16T03:01:26;100494.66;;;4.56;nan
63347;BME280;49472;49.880;8.650;2023-03-16T03:03:51;100496.84;;;5.05;nan
63347;BME280;49472;49.880;8.650;2023-03-16T03:06:16;100487.91;;;5.17;nan
63347;BME280;49472;49.880;8.650;2023-03-16T03:08:42;100488.41;;;5.44;nan
63347;BME280;49472;49.880;8.650;2023-03-16T03:11:07;100481.16;;;6.11;nan
63347;BME280;49472;49.880;8.650;2023-03-16T03:13:33;100474.63;;;6.24;nan
63347;BME280;49472;49.880;8.650;2023-03-16T03:15:59;100474.03;;;6.19;nan
63347;BME280;49472;49.880;8.650;2023-03-16T03:18:24;100472.59;;;6.30;nan
63347;BME280;49472;49.880;8.650;2023-03-16T03:20:49;100464.34;;;5.72;nan
63347;BME280;49472;49.880;8.650;2023-03-16T03:23:15;100474.00;;;6.01;nan
63347;BME280;49472;49.880;8.650;2023-03-16T03:25:41;100467.28;;;6.18;nan
63347;BME280;49472;49.880;8.650;2023-03-16T03:28:07;100457.72;;;6.23;nan
63347;BME280;49472;49.880;8.650;2023-03-16T03:30:33;100475.25;;;5.74;nan
63347;BME280;49472;49.880;8.650;2023-03-16T03:32:59;100477.25;;;5.09;nan
63347;BME280;49472;49.880;8.650;2023-03-16T03:35:26;100471.84;;;5.16;nan
63347;BME280;49472;49.880;8.650;2023-03-16T03:37:51;100463.31;;;4.79;nan
63347;BME280;49472;49.880;8.650;2023-03-16T03:40:18;100473.50;;;4.78;nan
63347;BME280;49472;49.880;8.650;2023-03-16T03:42:43;100475.84;;;4.83;nan
63347;BME280;49472;49.880;8.650;2023-03-16T03:45:10;100470.34;;;4.73;nan
63347;BME280;49472;49.880;8.650;2023-03-16T03:47:37;100478.31;;;4.84;nan
63347;BME280;49472;49.880;8.650;2023-03-16T03:50:02;100479.19;;;4.83;nan
63347;BME280;49472;49.880;8.650;2023-03-16T03:52:27;100471.53;;;4.64;nan
63347;BME280;49472;49.880;8.650;2023-03-16T03:54:53;100470.47;;;4.70;nan
63347;BME280;49472;49.880;8.650;2023-03-16T03:57:18;100468.78;;;5.29;nan
63347;BME280;49472;49.880;8.650;2023-03-16T03:59:43;100473.47;;;5.38;nan
63347;BME280;49472;49.880;8.650;2023-03-16T04:02:09;100465.75;;;5.77;nan
63347;BME280;49472;49.880;8.650;2023-03-16T04:04:35;100473.13;;;5.83;nan
63347;BME280;49472;49.880;8.650;2023-03-16T04:07:01;100472.38;;;5.62;nan
63347;BME280;49472;49.880;8.650;2023-03-16T04:09:26;100477.91;;;5.52;nan
63347;BME280;49472;49.880;8.650;2023-03-16T04:11:52;100473.53;;;5.17;nan
63347;BME280;49472;49.880;8.650;2023-03-16T04:14:17;100480.53;;;5.50;nan
63347;BME280;49472;49.880;8.650;2023-03-16T04:16:42;100478.59;;;5.36;nan
63347;BME280;49472;49.880;8.650;2023-03-16T04:19:09;100481.94;;;5.75;nan
63347;BME280;49472;49.880;8.650;2023-03-16T04:21:35;100484.63;;;5.72;nan
63347;BME280;49472;49.880;8.650;2023-03-16T04:24:02;100483.88;;;5.88;nan
63347;BME280;49472;49.880;8.650;2023-03-16T04:26:30;100473.88;;;5.48;nan
63347;BME280;49472;49.880;8.650;2023-03-16T04:28:56;100471.56;;;5.43;nan
63347;BME280;49472;49.880;8.650;2023-03-16T04:31:21;100463.19;;;5.22;nan
63347;BME280;49472;49.880;8.650;2023-03-16T04:33:47;100455.03;;;5.15;nan
63347;BME280;49472;49.880;8.650;2023-03-16T04:36:12;100458.94;;;5.41;nan
63347;BME280;49472;49.880;8.650;2023-03-16T04:38:38;100467.00;;;5.12;nan
63347;BME280;49472;49.880;8.650;2023-03-16T04:41:04;100458.19;;;5.20;nan
63347;BME280;49472;49.880;8.650;2023-03-16T04:43:31;100457.06;;;5.07;nan
63347;BME280;49472;49.880;8.650;2023-03-16T04:45:59;100454.81;;;5.39;nan
63347;BME280;49472;49.880;8.650;2023-03-16T04:48:25;100453.56;;;5.85;nan
63347;BME280;49472;49.880;8.650;2023-03-16T04:50:51;100453.78;;;5.81;nan
63347;BME280;49472;49.880;8.650;2023-03-16T04:53:16;100445.81;;;5.88;nan
63347;BME280;49472;49.880;8.650;2023-03-16T04:55:43;100440.53;;;5.74;nan
63347;BME280;49472;49.880;8.650;2023-03-16T04:58:09;100432.22;;;5.53;nan
63347;BME280;49472;49.880;8.650;2023-03-16T05:00:34;100431.75;;;5.81;nan
63347;BME280;49472;49.880;8.650;2023-03-16T05:02:59;100446.06;;;5.27;nan
63347;BME280;49472;49.880;8.650;2023-03-16T05:05:26;100444.75;;;5.56;nan
63347;BME280;49472;49.880;8.650;2023-03-16T05:07:52;100445.25;;;4.87;nan
63347;BME280;49472;49.880;8.650;2023-03-16T05:10:17;100451.47;;;4.80;nan
63347;BME280;49472;49.880;8.650;2023-03-16T05:12:43;100455.56;;;4.83;nan
63347;BME280;49472;49.880;8.650;2023-03-16T05:15:09;100452.09;;;4.65;nan
63347;BME280;49472;49.880;8.650;2023-03-16T05:17:35;100455.28;;;4.49;nan
63347;BME280;49472;49.880;8.650;2023-03-16T05:20:00;100455.19;;;4.92;nan
63347;BME280;49472;49.880;8.650;2023-03-16T05:22:25;100457.66;;;4.73;nan
63347;BME280;49472;49.880;8.650;2023-03-16T05:24:51;100461.28;;;5.27;nan
63347;BME280;49472;49.880;8.650;2023-03-16T05:27:16;100456.41;;;4.83;nan
63347;BME280;49472;49.880;8.650;2023-03-16T05:29:42;100448.44;;;4.51;nan
63347;BME280;49472;49.880;8.650;2023-03-16T05:32:11;100447.28;;;4.79;nan
63347;BME280;49472;49.880;8.650;2023-03-16T05:34:36;100446.16;;;4.66;nan
63347;BME280;49472;49.880;8.650;2023-03-16T05:37:01;100437.47;;;4.92;nan
63347;BME280;49472;49.880;8.650;2023-03-16T05:39:28;100436.31;;;4.99;nan
63347;BME280;49472;49.880;8.650;2023-03-16T05:41:55;100435.13;;;4.87;nan
63347;BME280;49472;49.880;8.650;2023-03-16T05:44:20;100431.00;;;4.85;nan
63347;BME280;49472;49.880;8.650;2023-03-16T05:46:45;100424.63;;;4.76;nan
63347;BME280;49472;49.880;8.650;2023-03-16T05:49:10;100426.59;;;4.69;nan
63347;BME280;49472;49.880;8.650;2023-03-16T05:51:37;100430.53;;;4.76;nan
63347;BME280;49472;49.880;8.650;2023-03-16T05:54:02;100422.84;;;4.78;nan
63347;BME280;49472;49.880;8.650;2023-03-16T05:56:28;100429.13;;;4.69;nan
63347;BME280;49472;49.880;8.650;2023-03-16T05:58:54;100418.91;;;5.10;nan
63347;BME280;49472;49.880;8.650;2023-03-16T06:01:20;100428.47;;;4.85;nan
63347;BME280;49472;49.880;8.650;2023-03-16T06:03:47;100430.06;;;5.06;nan
63347;BME280;49472;49.880;8.650;2023-03-16T06:06:15;100434.47;;;5.03;nan
63347;BME280;49472;49.880;8.650;2023-03-16T06:08:41;100424.50;;;4.98;nan
63347;BME280;49472;49.880;8.650;2023-03-16T06:11:06;100423.97;;;5.10;nan
63347;BME280;49472;49.880;8.650;2023-03-16T06:13:32;100427.97;;;5.35;nan
63347;BME280;49472;49.880;8.650;2023-03-16T06:15:57;100422.63;;;5.77;nan
63347;BME280;49472;49.880;8.650;2023-03-16T06:18:22;100423.72;;;5.91;nan
63347;BME280;49472;49.880;8.650;2023-03-16T06:20:48;100423.88;;;5.32;nan
63347;BME280;49472;49.880;8.650;2023-03-16T06:23:13;100417.19;;;5.85;nan
63347;BME280;49472;49.880;8.650;2023-03-16T06:25:39;100433.44;;;5.63;nan
63347;BME280;49472;49.880;8.650;2023-03-16T06:28:05;100421.72;;;5.97;nan
63347;BME280;49472;49.880;8.650;2023-03-16T06:30:31;100428.38;;;5.44;nan
63347;BME280;49472;49.880;8.650;2023-03-16T06:32:56;100427.13;;;6.08;nan
63347;BME280;49472;49.880;8.650;2023-03-16T06:35:24;100426.31;;;5.89;nan
63347;BME280;49472;49.880;8.650;2023-03-16T06:37:49;100424.59;;;5.90;nan
63347;BME280;49472;49.880;8.650;2023-03-16T06:40:14;100426.22;;;6.09;nan
63347;BME280;49472;49.880;8.650;2023-03-16T06:42:40;100437.22;;;6.45;nan
63347;BME280;49472;49.880;8.650;2023-03-16T06:45:06;100433.50;;;6.85;nan
63347;BME280;49472;49.880;8.650;2023-03-16T06:47:31;100437.72;;;6.17;nan
63347;BME280;49472;49.880;8.650;2023-03-16T06:49:56;100430.69;;;6.04;nan
63347;BME280;49472;49.880;8.650;2023-03-16T06:52:22;100437.66;;;6.53;nan
63347;BME280;49472;49.880;8.650;2023-03-16T06:54:47;100427.84;;;6.96;nan
63347;BME280;49472;49.880;8.650;2023-03-16T06:57:12;100440.00;;;7.07;nan
63347;BME280;49472;49.880;8.650;2023-03-16T06:59:38;100436.66;;;6.73;nan
63347;BME280;49472;49.880;8.650;2023-03-16T07:02:03;100430.28;;;6.82;nan
63347;BME280;49472;49.880;8.650;2023-03-16T07:04:29;100437.09;;;7.30;nan
63347;BME280;49472;49.880;8.650;2023-03-16T07:06:54;100437.91;;;7.15;nan
63347;BME280;49472;49.880;8.650;2023-03-16T07:09:19;100426.75;;;7.33;nan
63347;BME280;49472;49.880;8.650;2023-03-16T07:11:46;100428.38;;;7.50;nan
63347;BME280;49472;49.880;8.650;2023-03-16T07:14:11;100422.41;;;7.51;nan
63347;BME280;49472;49.880;8.650;2023-03-16T07:16:36;100427.66;;;7.64;nan
63347;BME280;49472;49.880;8.650;2023-03-16T07:19:02;100430.44;;;7.75;nan
63347;BME280;49472;49.880;8.650;2023-03-16T07:21:27;100432.69;;;7.96;nan
63347;BME280;49472;49.880;8.650;2023-03-16T07:23:52;100428.25;;;7.99;nan
63347;BME280;49472;49.880;8.650;2023-03-16T07:26:20;100431.00;;;7.80;nan
63347;BME280;49472;49.880;8.650;2023-03-16T07:28:45;100429.25;;;7.97;nan
63347;BME280;49472;49.880;8.650;2023-03-16T07:31:10;100433.34;;;7.99;nan
63347;BME280;49472;49.880;8.650;2023-03-16T07:33:36;100425.50;;;8.18;nan
63347;BME280;49472;49.880;8.650;2023-03-16T07:36:02;100429.34;;;8.56;nan
63347;BME280;49472;49.880;8.650;2023-03-16T07:38:29;100436.72;;;8.60;nan
63347;BME280;49472;49.880;8.650;2023-03-16T07:40:56;100437.97;;;8.53;nan
63347;BME280;49472;49.880;8.650;2023-03-16T07:43:21;100429.41;;;8.24;nan
63347;BME280;49472;49.880;8.650;2023-03-16T07:45:50;100430.66;;;8.47;nan
63347;BME280;49472;49.880;8.650;2023-03-16T07:48:17;100435.63;;;8.50;nan
63347;BME280;49472;49.880;8.650;2023-03-16T07:50:43;100427.31;;;8.46;nan
63347;BME280;49472;49.880;8.650;2023-03-16T07:53:09;100427.97;;;8.50;nan
63347;BME280;49472;49.880;8.650;2023-03-16T07:55:34;100421.75;;;8.40;nan
63347;BME280;49472;49.880;8.650;2023-03-16T07:58:03;100419.03;;;8.43;nan
63347;BME280;49472;49.880;8.650;2023-03-16T08:00:30;100419.94;;;8.42;nan
63347;BME280;49472;49.880;8.650;2023-03-16T08:02:56;100416.78;;;8.96;nan
63347;BME280;49472;49.880;8.650;2023-03-16T08:05:21;100414.41;;;9.07;nan
63347;BME280;49472;49.880;8.650;2023-03-16T08:07:47;100421.59;;;9.00;nan
63347;BME280;49472;49.880;8.650;2023-03-16T08:10:12;100410.31;;;9.19;nan
63347;BME280;49472;49.880;8.650;2023-03-16T08:12:37;100406.94;;;9.04;nan
63347;BME280;49472;49.880;8.650;2023-03-16T08:15:03;100417.56;;;9.25;nan
63347;BME280;49472;49.880;8.650;2023-03-16T08:17:30;100410.38;;;9.31;nan
63347;BME280;49472;49.880;8.650;2023-03-16T08:19:55;100418.94;;;9.57;nan
63347;BME280;49472;49.880;8.650;2023-03-16T08:22:21;100411.56;;;9.53;nan
63347;BME280;49472;49.880;8.650;2023-03-16T08:24:46;100412.50;;;9.52;nan
63347;BME280;49472;49.880;8.650;2023-03-16T08:27:13;100410.56;;;9.83;nan
63347;BME280;49472;49.880;8.650;2023-03-16T08:29:40;100415.56;;;9.84;nan
63347;BME280;49472;49.880;8.650;2023-03-16T08:32:05;100407.91;;;9.84;nan
63347;BME280;49472;49.880;8.650;2023-03-16T08:34:31;100411.38;;;9.56;nan
63347;BME280;49472;49.880;8.650;2023-03-16T08:36:56;100399.94;;;9.89;nan
63347;BME280;49472;49.880;8.650;2023-03-16T08:39:21;100405.41;;;10.10;nan
63347;BME280;49472;49.880;8.650;2023-03-16T08:41:47;100401.31;;;10.20;nan
63347;BME280;49472;49.880;8.650;2023-03-16T08:44:12;100401.28;;;9.94;nan
63347;BME280;49472;49.880;8.650;2023-03-16T08:46:38;100402.31;;;10.32;nan
63347;BME280;49472;49.880;8.650;2023-03-16T08:49:05;100395.78;;;10.53;nan
63347;BME280;49472;49.880;8.650;2023-03-16T08:51:31;100397.38;;;10.80;nan
63347;BME280;49472;49.880;8.650;2023-03-16T08:53:57;100392.75;;;10.98;nan
63347;BME280;49472;49.880;8.650;2023-03-16T08:56:23;100389.19;;;11.24;nan
63347;BME280;49472;49.880;8.650;2023-03-16T08:58:49;100394.56;;;11.08;nan
63347;BME280;49472;49.880;8.650;2023-03-16T09:01:16;100392.44;;;11.26;nan
63347;BME280;49472;49.880;8.650;2023-03-16T09:03:43;100390.69;;;11.40;nan
63347;BME280;49472;49.880;8.650;2023-03-16T09:06:11;100387.09;;;11.78;nan
63347;BME280;49472;49.880;8.650;2023-03-16T09:08:37;100385.75;;;11.85;nan
63347;BME280;49472;49.880;8.650;2023-03-16T09:11:14;100389.34;;;11.82;nan
63347;BME280;49472;49.880;8.650;2023-03-16T09:13:40;100384.91;;;12.08;nan
63347;BME280;49472;49.880;8.650;2023-03-16T09:16:07;100377.84;;;12.23;nan
63347;BME280;49472;49.880;8.650;2023-03-16T09:18:34;100375.88;;;12.27;nan
63347;BME280;49472;49.880;8.650;2023-03-16T09:21:02;100374.69;;;12.20;nan
63347;BME280;49472;49.880;8.650;2023-03-16T09:23:28;100373.94;;;11.95;nan
63347;BME280;49472;49.880;8.650;2023-03-16T09:26:01;100374.81;;;12.41;nan
63347;BME280;49472;49.880;8.650;2023-03-16T09:28:28;100382.38;;;12.31;nan
63347;BME280;49472;49.880;8.650;2023-03-16T09:30:54;100383.59;;;10.31;nan
63347;BME280;49472;49.880;8.650;2023-03-16T09:33:20;100384.81;;;10.77;nan
63347;BME280;49472;49.880;8.650;2023-03-16T09:35:47;100379.41;;;11.42;nan
63347;BME280;49472;49.880;8.650;2023-03-16T09:38:12;100379.13;;;11.58;nan
63347;BME280;49472;49.880;8.650;2023-03-16T09:40:38;100378.00;;;11.01;nan
63347;BME280;49472;49.880;8.650;2023-03-16T09:46:15;100367.34;;;11.32;nan
63347;BME280;49472;49.880;8.650;2023-03-16T09:48:46;100367.00;;;11.84;nan
63347;BME280;49472;49.880;8.650;2023-03-16T09:51:21;100365.28;;;12.43;nan
63347;BME280;49472;49.880;8.650;2023-03-16T09:53:47;100365.84;;;12.24;nan
63347;BME280;49472;49.880;8.650;2023-03-16T09:56:25;100368.03;;;12.17;nan
63347;BME280;49472;49.880;8.650;2023-03-16T09:58:51;100365.09;;;11.75;nan
63347;BME280;49472;49.880;8.650;2023-03-16T10:09:42;100358.88;;;12.71;nan
63347;BME280;49472;49.880;8.650;2023-03-16T10:12:12;100358.50;;;12.64;nan
63347;BME280;49472;49.880;8.650;2023-03-16T10:14:52;100358.66;;;12.63;nan
63347;BME280;49472;49.880;8.650;2023-03-16T10:17:28;100358.63;;;12.85;nan
63347;BME280;49472;49.880;8.650;2023-03-16T10:19:58;100353.38;;;12.64;nan
63347;BME280;49472;49.880;8.650;2023-03-16T10:22:32;100351.38;;;12.79;nan
63347;BME280;49472;49.880;8.650;2023-03-16T10:25:18;100353.19;;;13.33;nan
63347;BME280;49472;49.880;8.650;2023-03-16T10:27:46;100361.63;;;13.01;nan
63347;BME280;49472;49.880;8.650;2023-03-16T10:30:34;100354.69;;;13.36;nan
63347;BME280;49472;49.880;8.650;2023-03-16T10:33:24;100343.13;;;13.62;nan
63347;BME280;49472;49.880;8.650;2023-03-16T10:39:13;100341.06;;;14.19;nan
63347;BME280;49472;49.880;8.650;2023-03-16T10:46:26;100342.38;;;14.75;nan
63347;BME280;49472;49.880;8.650;2023-03-16T10:48:56;100344.97;;;14.75;nan
63347;BME280;49472;49.880;8.650;2023-03-16T10:51:32;100340.03;;;15.51;nan
63347;BME280;49472;49.880;8.650;2023-03-16T10:54:13;100335.97;;;15.58;nan
63347;BME280;49472;49.880;8.650;2023-03-16T10:56:39;100340.16;;;14.91;nan
63347;BME280;49472;49.880;8.650;2023-03-16T10:59:25;100337.31;;;15.04;nan
63347;BME280;49472;49.880;8.650;2023-03-16T11:01:52;100321.47;;;15.48;nan
63347;BME280;49472;49.880;8.650;2023-03-16T11:04:18;100332.44;;;15.59;nan
63347;BME280;49472;49.880;8.650;2023-03-16T11:06:55;100317.81;;;15.60;nan
63347;BME280;49472;49.880;8.650;2023-03-16T11:09:30;100329.44;;;15.06;nan
63347;BME280;49472;49.880;8.650;2023-03-16T11:11:57;100328.06;;;15.99;nan
63347;BME280;49472;49.880;8.650;2023-03-16T11:14:27;100318.44;;;16.01;nan
63347;BME280;49472;49.880;8.650;2023-03-16T11:17:02;100321.25;;;16.08;nan
63347;BME280;49472;49.880;8.650;2023-03-16T11:19:32;100316.38;;;16.04;nan
63347;BME280;49472;49.880;8.650;2023-03-16T11:22:16;100311.59;;;16.84;nan
63347;BME280;49472;49.880;8.650;2023-03-16T11:24:59;100304.34;;;15.95;nan
63347;BME280;49472;49.880;8.650;2023-03-16T11:27:34;100300.78;;;17.43;nan
63347;BME280;49472;49.880;8.650;2023-03-16T11:30:13;100297.06;;;17.81;nan
63347;BME280;49472;49.880;8.650;2023-03-16T11:32:46;100299.16;;;17.86;nan
63347;BME280;49472;49.880;8.650;2023-03-16T11:35:14;100298.81;;;17.63;nan
63347;BME280;49472;49.880;8.650;2023-03-16T11:37:53;100299.59;;;17.55;nan
63347;BME280;49472;49.880;8.650;2023-03-16T11:48:45;100280.72;;;16.83;nan
63347;BME280;49472;49.880;8.650;2023-03-16T11:57:02;100278.75;;;18.09;nan
63347;BME280;49472;49.880;8.650;2023-03-16T12:00:05;100277.28;;;17.10;nan
63347;BME280;49472;49.880;8.650;2023-03-16T12:02:48;100261.22;;;17.68;nan
63347;BME280;49472;49.880;8.650;2023-03-16T12:07:54;100256.44;;;18.42;nan
63347;BME280;49472;49.880;8.650;2023-03-16T12:10:28;100247.31;;;18.30;nan
63347;BME280;49472;49.880;8.650;2023-03-16T12:13:25;100245.09;;;18.51;nan
63347;BME280;49472;49.880;8.650;2023-03-16T12:18:46;100237.53;;;17.55;nan
63347;BME280;49472;49.880;8.650;2023-03-16T12:21:18;100238.78;;;18.03;nan
63347;BME280;49472;49.880;8.650;2023-03-16T12:23:52;100244.88;;;18.87;nan
63347;BME280;49472;49.880;8.650;2023-03-16T12:26:20;100246.91;;;18.08;nan
63347;BME280;49472;49.880;8.650;2023-03-16T12:28:48;100239.81;;;18.10;nan
63347;BME280;49472;49.880;8.650;2023-03-16T12:31:19;100235.72;;;17.73;nan
63347;BME280;49472;49.880;8.650;2023-03-16T12:37:10;100242.16;;;17.95;nan
63347;BME280;49472;49.880;8.650;2023-03-16T12:39:34;100241.53;;;18.44;nan
63347;BME280;49472;49.880;8.650;2023-03-16T12:44:55;100231.69;;;18.48;nan
63347;BME280;49472;49.880;8.650;2023-03-16T12:50:53;100210.44;;;20.77;nan
63347;BME280;49472;49.880;8.650;2023-03-16T12:53:45;100216.25;;;21.40;nan
63347;BME280;49472;49.880;8.650;2023-03-16T12:56:29;100216.81;;;22.31;nan
63347;BME280;49472;49.880;8.650;2023-03-16T12:58:57;100205.94;;;21.46;nan
63347;BME280;49472;49.880;8.650;2023-03-16T13:01:27;100196.72;;;21.21;nan
63347;BME280;49472;49.880;8.650;2023-03-16T13:04:06;100202.84;;;20.13;nan
63347;BME280;49472;49.880;8.650;2023-03-16T13:06:34;100193.91;;;21.75;nan
63347;BME280;49472;49.880;8.650;2023-03-16T13:09:02;100196.81;;;23.24;nan
63347;BME280;49472;49.880;8.650;2023-03-16T13:11:40;100195.72;;;24.43;nan
63347;BME280;49472;49.880;8.650;2023-03-16T13:14:08;100194.44;;;23.71;nan
63347;BME280;49472;49.880;8.650;2023-03-16T13:16:37;100180.22;;;24.41;nan
63347;BME280;49472;49.880;8.650;2023-03-16T13:19:27;100172.25;;;23.12;nan
63347;BME280;49472;49.880;8.650;2023-03-16T13:22:01;100170.22;;;24.52;nan
63347;BME280;49472;49.880;8.650;2023-03-16T13:24:38;100171.84;;;25.19;nan
63347;BME280;49472;49.880;8.650;2023-03-16T13:27:20;100170.00;;;24.60;nan
63347;BME280;49472;49.880;8.650;2023-03-16T13:29:58;100165.06;;;25.56;nan
63347;BME280;49472;49.880;8.650;2023-03-16T13:32:30;100165.38;;;25.22;nan
63347;BME280;49472;49.880;8.650;2023-03-16T13:34:58;100168.91;;;24.08;nan
63347;BME280;49472;49.880;8.650;2023-03-16T13:37:27;100168.91;;;25.54;nan
63347;BME280;49472;49.880;8.650;2023-03-16T13:39:58;100166.50;;;25.52;nan
63347;BME280;49472;49.880;8.650;2023-03-16T13:42:25;100157.91;;;25.12;nan
63347;BME280;49472;49.880;8.650;2023-03-16T13:44:55;100152.13;;;24.77;nan
63347;BME280;49472;49.880;8.650;2023-03-16T13:47:20;100137.19;;;26.20;nan
63347;BME280;49472;49.880;8.650;2023-03-16T13:49:57;100144.75;;;25.97;nan
63347;BME280;49472;49.880;8.650;2023-03-16T13:52:28;100144.09;;;25.70;nan
63347;BME280;49472;49.880;8.650;2023-03-16T13:54:55;100155.00;;;23.17;nan
63347;BME280;49472;49.880;8.650;2023-03-16T13:57:24;100149.13;;;21.35;nan
63347;BME280;49472;49.880;8.650;2023-03-16T13:59:51;100133.06;;;21.76;nan
63347;BME280;49472;49.880;8.650;2023-03-16T14:02:24;100130.50;;;21.98;nan
63347;BME280;49472;49.880;8.650;2023-03-16T14:04:50;100125.09;;;23.55;nan
63347;BME280;49472;49.880;8.650;2023-03-16T14:07:18;100130.59;;;22.26;nan
63347;BME280;49472;49.880;8.650;2023-03-16T14:09:44;100129.25;;;19.75;nan
63347;BME280;49472;49.880;8.650;2023-03-16T14:12:15;100125.16;;;20.95;nan
63347;BME280;49472;49.880;8.650;2023-03-16T14:14:41;100122.16;;;20.23;nan
63347;BME280;49472;49.880;8.650;2023-03-16T14:17:15;100117.69;;;20.77;nan